首页
METAR-TAF:

METAR-TAF

机场 :

福岡機場

福岡, 日本

纬度: 33-35N, 经度: 130-27E, 海拔: 9米

当前天气观测

该预报发布于41分钟前的01:30 UTC
风速22节,风向东南,有时为33节阵风
温度 35°C
湿度 39%
气压 1002 hPa
能见度10公里或以上
少量云层高于3000英尺
多云

METAR: RJFF 220130Z 14022G33KT 9999 FEW030 BKN/// 35/19 Q1002 NOSIG

时间: 11:11 (02:11 UTC)

预报

该预报发布于42分钟前的01:29 UTC
预报有效从22日的 01点(UTC)到 23日的 06点(UTC)
风速22节,风向东南
能见度10公里或以上
少量云层高于3000英尺
散云层高于4000英尺
短暂存在
从 22日的 01点(UTC)到 22日的 09点(UTC)
风速25节,风向东南,有时为35节阵风
短暂存在
从 22日的 09点(UTC)到 22日的 15点(UTC)
风速15节,风向东南,有时为25节阵风
成为
从 22日的 15点(UTC)到 22日的 18点(UTC)
风速12节,风向东南

TAF: RJFF 220129Z 2201/2306 13022KT 9999 FEW030 SCT040 TEMPO 2201/2209 13025G35KT TEMPO 2209/2215 13015G25KT BECMG 2215/2218 14012KT

超过4000个机场的气象观测和天气预报(METAR&TAF报告)。

可查询的气象台以黄色和红色小点在地图上表示。

将鼠标移到小点上方,可查看气象台名称。

然后点击查看天气观测和预报。

如需切换地图:点击带黑十字的绿色按钮放大地图;点击带横线的绿色按钮缩小地图;或者点击绿色箭头查看邻近地区的地图。


METAR-TAF: